首页
METAR-TAF:

METAR-TAF

机场 :

乌塔保国际机场

芭達亞-Rayong, 泰国

纬度: 12-38N, 经度: 101-21E, 海拔: 3米

当前天气观测

该预报发布于31分钟前的00:00 UTC
风速3节,风向北转东北
温度 29°C
湿度 79%
气压 1007 hPa
能见度10公里或以上
少量云层高于2000英尺
散云层高于10000英尺

METAR: VTBU 290000Z 02003KT 9999 FEW020 SCT100 29/25 Q1007 NOSIG

时间: 07:31 (00:31 UTC)

预报

该预报发布于1小时和31分钟前的23:00 UTC
预报有效从29日的 00点(UTC)到 29日的 24点(UTC)
风速8节,风向西南
能见度10公里或以上
少量云层高于2000英尺

TAF: VTBU 282300Z 2900/2924 23008KT 9999 FEW020

超过4000个机场的气象观测和天气预报(METAR&TAF报告)。

可查询的气象台以黄色和红色小点在地图上表示。

将鼠标移到小点上方,可查看气象台名称。

然后点击查看天气观测和预报。

如需切换地图:点击带黑十字的绿色按钮放大地图;点击带横线的绿色按钮缩小地图;或者点击绿色箭头查看邻近地区的地图。


METAR-TAF: